sensor_id;sensor_type;location;lat;lon;timestamp;temperature;humidity
35894;DHT22;21994;48.204;16.516;2023-03-01T00:01:46;-3.60;99.90
35894;DHT22;21994;48.204;16.516;2023-03-01T00:04:12;-3.60;99.90
35894;DHT22;21994;48.204;16.516;2023-03-01T00:06:38;-3.60;99.90
35894;DHT22;21994;48.204;16.516;2023-03-01T00:09:03;-3.60;99.90
35894;DHT22;21994;48.204;16.516;2023-03-01T00:11:32;-3.60;99.90
35894;DHT22;21994;48.204;16.516;2023-03-01T00:13:59;-3.70;99.90
35894;DHT22;21994;48.204;16.516;2023-03-01T00:16:28;-3.70;99.90
35894;DHT22;21994;48.204;16.516;2023-03-01T00:18:58;-3.70;99.90
35894;DHT22;21994;48.204;16.516;2023-03-01T00:21:25;-3.80;99.90
35894;DHT22;21994;48.204;16.516;2023-03-01T00:23:51;-3.80;99.90
35894;DHT22;21994;48.204;16.516;2023-03-01T00:26:17;-3.80;99.90
35894;DHT22;21994;48.204;16.516;2023-03-01T00:28:44;-3.80;99.90
35894;DHT22;21994;48.204;16.516;2023-03-01T00:31:11;-3.80;99.90
35894;DHT22;21994;48.204;16.516;2023-03-01T00:33:39;-3.90;99.90
35894;DHT22;21994;48.204;16.516;2023-03-01T00:36:05;-3.90;99.90
35894;DHT22;21994;48.204;16.516;2023-03-01T00:38:36;-3.90;99.90
35894;DHT22;21994;48.204;16.516;2023-03-01T00:41:03;-3.90;99.90
35894;DHT22;21994;48.204;16.516;2023-03-01T00:43:33;-3.90;99.90
35894;DHT22;21994;48.204;16.516;2023-03-01T00:46:02;-3.90;99.90
35894;DHT22;21994;48.204;16.516;2023-03-01T00:48:29;-3.90;99.90
35894;DHT22;21994;48.204;16.516;2023-03-01T00:50:55;-4.00;99.90
35894;DHT22;21994;48.204;16.516;2023-03-01T00:53:21;-4.00;99.90
35894;DHT22;21994;48.204;16.516;2023-03-01T00:55:47;-4.00;99.90
35894;DHT22;21994;48.204;16.516;2023-03-01T00:58:12;-4.00;99.90
35894;DHT22;21994;48.204;16.516;2023-03-01T01:00:38;-4.00;99.90
35894;DHT22;21994;48.204;16.516;2023-03-01T01:03:04;-4.00;99.90
35894;DHT22;21994;48.204;16.516;2023-03-01T01:05:29;-4.00;99.90
35894;DHT22;21994;48.204;16.516;2023-03-01T01:07:56;-4.00;99.90
35894;DHT22;21994;48.204;16.516;2023-03-01T01:10:21;-4.00;99.90
35894;DHT22;21994;48.204;16.516;2023-03-01T01:12:47;-4.00;99.90
35894;DHT22;21994;48.204;16.516;2023-03-01T01:15:13;-4.00;99.90
35894;DHT22;21994;48.204;16.516;2023-03-01T01:17:41;-4.00;99.90
35894;DHT22;21994;48.204;16.516;2023-03-01T01:20:07;-4.00;99.90
35894;DHT22;21994;48.204;16.516;2023-03-01T01:22:33;-3.90;99.90
35894;DHT22;21994;48.204;16.516;2023-03-01T01:24:59;-3.90;99.90
35894;DHT22;21994;48.204;16.516;2023-03-01T01:27:25;-3.90;99.90
35894;DHT22;21994;48.204;16.516;2023-03-01T01:29:52;-3.80;99.90
35894;DHT22;21994;48.204;16.516;2023-03-01T01:32:20;-3.70;99.90
35894;DHT22;21994;48.204;16.516;2023-03-01T01:34:45;-3.70;99.90
35894;DHT22;21994;48.204;16.516;2023-03-01T01:37:11;-3.60;99.90
35894;DHT22;21994;48.204;16.516;2023-03-01T01:39:37;-3.50;99.90
35894;DHT22;21994;48.204;16.516;2023-03-01T01:42:03;-3.50;99.90
35894;DHT22;21994;48.204;16.516;2023-03-01T01:44:29;-3.40;99.90
35894;DHT22;21994;48.204;16.516;2023-03-01T01:46:59;-3.30;99.90
35894;DHT22;21994;48.204;16.516;2023-03-01T01:52:18;-3.10;99.90
35894;DHT22;21994;48.204;16.516;2023-03-01T01:54:49;-3.00;99.90
35894;DHT22;21994;48.204;16.516;2023-03-01T01:57:18;-2.90;99.90
35894;DHT22;21994;48.204;16.516;2023-03-01T01:59:46;-2.80;99.90
35894;DHT22;21994;48.204;16.516;2023-03-01T02:02:14;-2.70;99.90
35894;DHT22;21994;48.204;16.516;2023-03-01T02:04:40;-2.60;99.90
35894;DHT22;21994;48.204;16.516;2023-03-01T02:07:09;-2.50;99.90
35894;DHT22;21994;48.204;16.516;2023-03-01T02:09:40;-2.50;99.90
35894;DHT22;21994;48.204;16.516;2023-03-01T02:12:08;-2.40;99.90
35894;DHT22;21994;48.204;16.516;2023-03-01T02:14:34;-2.40;99.90
35894;DHT22;21994;48.204;16.516;2023-03-01T02:17:00;-2.30;99.90
35894;DHT22;21994;48.204;16.516;2023-03-01T02:19:29;-2.30;99.90
35894;DHT22;21994;48.204;16.516;2023-03-01T02:22:05;-2.10;99.90
35894;DHT22;21994;48.204;16.516;2023-03-01T02:27:33;-1.90;99.90
35894;DHT22;21994;48.204;16.516;2023-03-01T02:30:04;-1.90;99.90
35894;DHT22;21994;48.204;16.516;2023-03-01T02:32:30;-1.80;99.90
35894;DHT22;21994;48.204;16.516;2023-03-01T02:34:56;-1.90;99.90
35894;DHT22;21994;48.204;16.516;2023-03-01T02:37:22;-1.80;99.90
35894;DHT22;21994;48.204;16.516;2023-03-01T02:39:57;-1.80;99.90
35894;DHT22;21994;48.204;16.516;2023-03-01T02:42:26;-1.80;99.90
35894;DHT22;21994;48.204;16.516;2023-03-01T02:44:56;-1.70;99.90
35894;DHT22;21994;48.204;16.516;2023-03-01T02:47:22;-1.70;99.90
35894;DHT22;21994;48.204;16.516;2023-03-01T02:49:48;-1.60;99.90
35894;DHT22;21994;48.204;16.516;2023-03-01T02:55:01;-1.60;99.90
35894;DHT22;21994;48.204;16.516;2023-03-01T02:57:30;-1.50;99.90
35894;DHT22;21994;48.204;16.516;2023-03-01T02:59:57;-1.50;99.90
35894;DHT22;21994;48.204;16.516;2023-03-01T03:02:32;-1.40;99.90
35894;DHT22;21994;48.204;16.516;2023-03-01T03:05:17;-1.40;99.90
35894;DHT22;21994;48.204;16.516;2023-03-01T03:07:46;-1.30;99.90
35894;DHT22;21994;48.204;16.516;2023-03-01T03:10:23;-1.30;99.90
35894;DHT22;21994;48.204;16.516;2023-03-01T03:12:51;-1.30;99.90
35894;DHT22;21994;48.204;16.516;2023-03-01T03:15:21;-1.30;99.90
35894;DHT22;21994;48.204;16.516;2023-03-01T03:17:47;-1.20;99.90
35894;DHT22;21994;48.204;16.516;2023-03-01T03:20:14;-1.20;99.90
35894;DHT22;21994;48.204;16.516;2023-03-01T03:22:44;-1.10;99.90
35894;DHT22;21994;48.204;16.516;2023-03-01T03:25:11;-1.10;99.90
35894;DHT22;21994;48.204;16.516;2023-03-01T03:27:37;-1.00;99.90
35894;DHT22;21994;48.204;16.516;2023-03-01T03:30:04;-1.00;99.90
35894;DHT22;21994;48.204;16.516;2023-03-01T03:32:38;-0.90;99.90
35894;DHT22;21994;48.204;16.516;2023-03-01T03:35:05;-0.90;99.90
35894;DHT22;21994;48.204;16.516;2023-03-01T03:37:35;-0.80;99.90
35894;DHT22;21994;48.204;16.516;2023-03-01T03:40:20;-0.80;99.90
35894;DHT22;21994;48.204;16.516;2023-03-01T03:42:46;-0.70;99.90
35894;DHT22;21994;48.204;16.516;2023-03-01T03:45:13;-0.80;99.90
35894;DHT22;21994;48.204;16.516;2023-03-01T03:47:39;-0.80;99.90
35894;DHT22;21994;48.204;16.516;2023-03-01T03:50:05;-0.70;99.90
35894;DHT22;21994;48.204;16.516;2023-03-01T03:52:31;-0.60;99.90
35894;DHT22;21994;48.204;16.516;2023-03-01T03:54:57;-0.60;99.90
35894;DHT22;21994;48.204;16.516;2023-03-01T03:57:22;-0.60;99.90
35894;DHT22;21994;48.204;16.516;2023-03-01T03:59:48;-0.50;99.90
35894;DHT22;21994;48.204;16.516;2023-03-01T04:02:14;-0.50;99.90
35894;DHT22;21994;48.204;16.516;2023-03-01T04:04:50;-0.50;99.90
35894;DHT22;21994;48.204;16.516;2023-03-01T04:07:18;-0.50;99.90
35894;DHT22;21994;48.204;16.516;2023-03-01T04:09:43;-0.50;99.90
35894;DHT22;21994;48.204;16.516;2023-03-01T04:12:09;-0.40;99.90
35894;DHT22;21994;48.204;16.516;2023-03-01T04:14:35;-0.30;99.90
35894;DHT22;21994;48.204;16.516;2023-03-01T04:17:01;-0.30;99.90
35894;DHT22;21994;48.204;16.516;2023-03-01T04:19:31;-0.20;99.90
35894;DHT22;21994;48.204;16.516;2023-03-01T04:22:01;-0.10;99.90
35894;DHT22;21994;48.204;16.516;2023-03-01T04:24:34;-0.20;99.90
35894;DHT22;21994;48.204;16.516;2023-03-01T04:27:01;-0.10;99.90
35894;DHT22;21994;48.204;16.516;2023-03-01T04:29:27;-0.10;99.90
35894;DHT22;21994;48.204;16.516;2023-03-01T04:31:53;-0.10;99.90
35894;DHT22;21994;48.204;16.516;2023-03-01T04:34:19;-0.10;99.90
35894;DHT22;21994;48.204;16.516;2023-03-01T04:36:44;-0.10;99.90
35894;DHT22;21994;48.204;16.516;2023-03-01T04:39:10;0.10;99.90
35894;DHT22;21994;48.204;16.516;2023-03-01T04:41:39;0.00;99.90
35894;DHT22;21994;48.204;16.516;2023-03-01T04:44:05;-0.10;99.90
35894;DHT22;21994;48.204;16.516;2023-03-01T04:46:32;-0.10;99.90
35894;DHT22;21994;48.204;16.516;2023-03-01T04:48:58;-0.20;99.90
35894;DHT22;21994;48.204;16.516;2023-03-01T04:51:23;-0.20;99.90
35894;DHT22;21994;48.204;16.516;2023-03-01T04:53:49;-0.20;99.90
35894;DHT22;21994;48.204;16.516;2023-03-01T04:56:15;-0.20;99.90
35894;DHT22;21994;48.204;16.516;2023-03-01T04:58:43;-0.10;99.90
35894;DHT22;21994;48.204;16.516;2023-03-01T05:01:10;0.00;99.90
35894;DHT22;21994;48.204;16.516;2023-03-01T05:03:41;-0.10;99.90
35894;DHT22;21994;48.204;16.516;2023-03-01T05:06:08;0.30;99.90
35894;DHT22;21994;48.204;16.516;2023-03-01T05:08:34;0.40;99.90
35894;DHT22;21994;48.204;16.516;2023-03-01T05:11:02;0.40;99.90
35894;DHT22;21994;48.204;16.516;2023-03-01T05:13:28;0.30;99.90
35894;DHT22;21994;48.204;16.516;2023-03-01T05:16:00;0.30;99.90
35894;DHT22;21994;48.204;16.516;2023-03-01T05:18:27;0.20;99.90
35894;DHT22;21994;48.204;16.516;2023-03-01T05:20:56;0.10;99.90
35894;DHT22;21994;48.204;16.516;2023-03-01T05:23:31;0.00;99.90
35894;DHT22;21994;48.204;16.516;2023-03-01T05:25:58;-0.10;99.90
35894;DHT22;21994;48.204;16.516;2023-03-01T05:28:25;0.10;99.90
35894;DHT22;21994;48.204;16.516;2023-03-01T05:30:50;0.00;99.90
35894;DHT22;21994;48.204;16.516;2023-03-01T05:33:17;0.10;99.90
35894;DHT22;21994;48.204;16.516;2023-03-01T05:35:43;0.10;99.90
35894;DHT22;21994;48.204;16.516;2023-03-01T05:38:10;0.00;99.90
35894;DHT22;21994;48.204;16.516;2023-03-01T05:40:38;0.20;99.90
35894;DHT22;21994;48.204;16.516;2023-03-01T05:43:05;0.10;99.90
35894;DHT22;21994;48.204;16.516;2023-03-01T05:45:31;0.00;99.90
35894;DHT22;21994;48.204;16.516;2023-03-01T05:47:58;0.10;99.90
35894;DHT22;21994;48.204;16.516;2023-03-01T05:50:25;0.00;99.90
35894;DHT22;21994;48.204;16.516;2023-03-01T05:53:05;0.00;99.90
35894;DHT22;21994;48.204;16.516;2023-03-01T05:55:33;0.00;99.90
35894;DHT22;21994;48.204;16.516;2023-03-01T05:58:00;0.00;99.90
35894;DHT22;21994;48.204;16.516;2023-03-01T06:00:28;0.10;99.90
35894;DHT22;21994;48.204;16.516;2023-03-01T06:02:55;0.10;99.90
35894;DHT22;21994;48.204;16.516;2023-03-01T06:05:21;0.10;99.90
35894;DHT22;21994;48.204;16.516;2023-03-01T06:07:47;0.20;99.90
35894;DHT22;21994;48.204;16.516;2023-03-01T06:10:13;0.20;99.90
35894;DHT22;21994;48.204;16.516;2023-03-01T06:12:40;0.30;99.90
35894;DHT22;21994;48.204;16.516;2023-03-01T06:15:08;0.20;99.90
35894;DHT22;21994;48.204;16.516;2023-03-01T06:17:37;0.30;99.90
35894;DHT22;21994;48.204;16.516;2023-03-01T06:20:05;0.40;99.90
35894;DHT22;21994;48.204;16.516;2023-03-01T06:22:35;0.40;99.90
35894;DHT22;21994;48.204;16.516;2023-03-01T06:25:02;0.50;99.90
35894;DHT22;21994;48.204;16.516;2023-03-01T06:27:28;0.50;99.90
35894;DHT22;21994;48.204;16.516;2023-03-01T06:29:54;0.70;99.90
35894;DHT22;21994;48.204;16.516;2023-03-01T06:32:20;0.80;99.90
35894;DHT22;21994;48.204;16.516;2023-03-01T06:34:45;0.70;99.90
35894;DHT22;21994;48.204;16.516;2023-03-01T06:37:11;0.70;99.90
35894;DHT22;21994;48.204;16.516;2023-03-01T06:39:37;0.70;99.90
35894;DHT22;21994;48.204;16.516;2023-03-01T06:42:03;0.80;99.90
35894;DHT22;21994;48.204;16.516;2023-03-01T06:44:29;1.10;99.90
35894;DHT22;21994;48.204;16.516;2023-03-01T06:46:55;1.20;99.90
35894;DHT22;21994;48.204;16.516;2023-03-01T06:49:20;1.10;99.90
35894;DHT22;21994;48.204;16.516;2023-03-01T06:51:46;1.00;99.90
35894;DHT22;21994;48.204;16.516;2023-03-01T06:54:12;1.20;99.90
35894;DHT22;21994;48.204;16.516;2023-03-01T06:56:38;1.20;99.90
35894;DHT22;21994;48.204;16.516;2023-03-01T06:59:04;1.20;99.90
35894;DHT22;21994;48.204;16.516;2023-03-01T07:01:30;1.30;99.90
35894;DHT22;21994;48.204;16.516;2023-03-01T07:03:56;1.50;99.90
35894;DHT22;21994;48.204;16.516;2023-03-01T07:06:22;1.60;99.90
35894;DHT22;21994;48.204;16.516;2023-03-01T07:08:48;1.70;99.90
35894;DHT22;21994;48.204;16.516;2023-03-01T07:11:14;1.70;99.90
35894;DHT22;21994;48.204;16.516;2023-03-01T07:13:40;1.70;99.90
35894;DHT22;21994;48.204;16.516;2023-03-01T07:16:06;1.60;99.90
35894;DHT22;21994;48.204;16.516;2023-03-01T07:18:32;1.60;99.90
35894;DHT22;21994;48.204;16.516;2023-03-01T07:20:58;1.60;99.90
35894;DHT22;21994;48.204;16.516;2023-03-01T07:23:29;1.60;99.90
35894;DHT22;21994;48.204;16.516;2023-03-01T07:25:55;1.60;99.90
35894;DHT22;21994;48.204;16.516;2023-03-01T07:28:24;1.70;99.90
35894;DHT22;21994;48.204;16.516;2023-03-01T07:30:49;1.80;99.90
35894;DHT22;21994;48.204;16.516;2023-03-01T07:33:16;1.90;99.90
35894;DHT22;21994;48.204;16.516;2023-03-01T07:35:42;2.00;99.90
35894;DHT22;21994;48.204;16.516;2023-03-01T07:38:07;2.10;99.90
35894;DHT22;21994;48.204;16.516;2023-03-01T07:40:33;2.00;99.90
35894;DHT22;21994;48.204;16.516;2023-03-01T07:42:59;2.10;99.90
35894;DHT22;21994;48.204;16.516;2023-03-01T07:45:26;2.30;99.90
35894;DHT22;21994;48.204;16.516;2023-03-01T07:47:53;2.40;99.90
35894;DHT22;21994;48.204;16.516;2023-03-01T07:50:20;2.40;99.90
35894;DHT22;21994;48.204;16.516;2023-03-01T07:52:46;2.30;99.90
35894;DHT22;21994;48.204;16.516;2023-03-01T07:55:13;2.30;99.90
35894;DHT22;21994;48.204;16.516;2023-03-01T07:57:39;2.20;99.90
35894;DHT22;21994;48.204;16.516;2023-03-01T08:00:05;2.40;99.90
35894;DHT22;21994;48.204;16.516;2023-03-01T08:02:32;2.50;99.90
35894;DHT22;21994;48.204;16.516;2023-03-01T08:04:58;2.80;99.90
35894;DHT22;21994;48.204;16.516;2023-03-01T08:07:23;2.90;99.90
35894;DHT22;21994;48.204;16.516;2023-03-01T08:09:49;3.20;99.90
35894;DHT22;21994;48.204;16.516;2023-03-01T08:12:15;3.30;99.90
35894;DHT22;21994;48.204;16.516;2023-03-01T08:14:42;3.40;99.90
35894;DHT22;21994;48.204;16.516;2023-03-01T08:17:08;3.50;99.90
35894;DHT22;21994;48.204;16.516;2023-03-01T08:19:33;3.50;99.90
35894;DHT22;21994;48.204;16.516;2023-03-01T08:22:03;3.40;99.90
35894;DHT22;21994;48.204;16.516;2023-03-01T08:24:28;3.50;99.90
35894;DHT22;21994;48.204;16.516;2023-03-01T08:26:54;3.40;99.90
35894;DHT22;21994;48.204;16.516;2023-03-01T08:29:20;3.70;99.90
35894;DHT22;21994;48.204;16.516;2023-03-01T08:31:46;3.80;99.90
35894;DHT22;21994;48.204;16.516;2023-03-01T08:34:13;3.70;99.90
35894;DHT22;21994;48.204;16.516;2023-03-01T08:36:40;4.00;99.90
35894;DHT22;21994;48.204;16.516;2023-03-01T08:39:08;4.10;99.90
35894;DHT22;21994;48.204;16.516;2023-03-01T08:41:35;4.20;99.90
35894;DHT22;21994;48.204;16.516;2023-03-01T08:44:01;4.30;99.90
35894;DHT22;21994;48.204;16.516;2023-03-01T08:46:28;4.40;99.90
35894;DHT22;21994;48.204;16.516;2023-03-01T08:48:54;4.40;99.90
35894;DHT22;21994;48.204;16.516;2023-03-01T08:51:20;4.40;99.90
35894;DHT22;21994;48.204;16.516;2023-03-01T08:53:47;4.50;99.90
35894;DHT22;21994;48.204;16.516;2023-03-01T08:56:13;4.80;99.90
35894;DHT22;21994;48.204;16.516;2023-03-01T08:58:39;4.70;99.90
35894;DHT22;21994;48.204;16.516;2023-03-01T09:01:12;5.00;99.90
35894;DHT22;21994;48.204;16.516;2023-03-01T09:03:40;5.70;98.70
35894;DHT22;21994;48.204;16.516;2023-03-01T09:06:06;6.30;97.20
35894;DHT22;21994;48.204;16.516;2023-03-01T09:08:36;6.50;96.20
35894;DHT22;21994;48.204;16.516;2023-03-01T09:11:07;6.40;96.60
35894;DHT22;21994;48.204;16.516;2023-03-01T09:13:33;6.50;96.60
35894;DHT22;21994;48.204;16.516;2023-03-01T09:16:04;6.20;96.70
35894;DHT22;21994;48.204;16.516;2023-03-01T09:18:31;6.00;97.40
35894;DHT22;21994;48.204;16.516;2023-03-01T09:21:08;6.00;96.80
35894;DHT22;21994;48.204;16.516;2023-03-01T09:23:36;6.10;96.70
35894;DHT22;21994;48.204;16.516;2023-03-01T09:26:05;6.00;96.80
35894;DHT22;21994;48.204;16.516;2023-03-01T09:28:31;5.70;97.90
35894;DHT22;21994;48.204;16.516;2023-03-01T09:30:57;6.00;96.80
35894;DHT22;21994;48.204;16.516;2023-03-01T09:33:24;6.20;96.50
35894;DHT22;21994;48.204;16.516;2023-03-01T09:35:58;6.30;96.60
35894;DHT22;21994;48.204;16.516;2023-03-01T09:38:28;6.60;96.40
35894;DHT22;21994;48.204;16.516;2023-03-01T09:40:54;6.80;96.80
35894;DHT22;21994;48.204;16.516;2023-03-01T09:43:36;6.80;96.40
35894;DHT22;21994;48.204;16.516;2023-03-01T09:46:09;7.00;96.50
35894;DHT22;21994;48.204;16.516;2023-03-01T09:48:39;7.10;96.40
35894;DHT22;21994;48.204;16.516;2023-03-01T09:51:25;6.80;95.50
35894;DHT22;21994;48.204;16.516;2023-03-01T09:53:52;6.90;95.90
35894;DHT22;21994;48.204;16.516;2023-03-01T09:56:30;7.10;96.80
35894;DHT22;21994;48.204;16.516;2023-03-01T10:04:35;7.60;95.50
35894;DHT22;21994;48.204;16.516;2023-03-01T10:07:07;7.60;94.40
35894;DHT22;21994;48.204;16.516;2023-03-01T10:09:41;7.80;95.00
35894;DHT22;21994;48.204;16.516;2023-03-01T10:12:09;8.30;93.90
35894;DHT22;21994;48.204;16.516;2023-03-01T10:15:25;8.70;93.30
35894;DHT22;21994;48.204;16.516;2023-03-01T10:19:58;10.50;91.00
35894;DHT22;21994;48.204;16.516;2023-03-01T10:22:36;10.00;90.40
35894;DHT22;21994;48.204;16.516;2023-03-01T10:25:02;10.10;91.00
35894;DHT22;21994;48.204;16.516;2023-03-01T10:30:06;10.00;90.70
35894;DHT22;21994;48.204;16.516;2023-03-01T10:32:37;10.50;91.60
35894;DHT22;21994;48.204;16.516;2023-03-01T10:35:17;11.20;89.80
35894;DHT22;21994;48.204;16.516;2023-03-01T10:37:57;11.80;87.80
35894;DHT22;21994;48.204;16.516;2023-03-01T10:40:24;11.70;86.80
35894;DHT22;21994;48.204;16.516;2023-03-01T10:42:49;10.80;88.10
35894;DHT22;21994;48.204;16.516;2023-03-01T10:47:44;10.90;90.30
35894;DHT22;21994;48.204;16.516;2023-03-01T10:50:22;10.60;90.10
35894;DHT22;21994;48.204;16.516;2023-03-01T10:52:59;11.00;88.80
35894;DHT22;21994;48.204;16.516;2023-03-01T10:55:31;11.00;87.50
35894;DHT22;21994;48.204;16.516;2023-03-01T10:58:16;11.20;88.40
35894;DHT22;21994;48.204;16.516;2023-03-01T11:00:47;11.90;88.80
35894;DHT22;21994;48.204;16.516;2023-03-01T11:03:14;12.30;85.30
35894;DHT22;21994;48.204;16.516;2023-03-01T11:05:53;11.90;86.60
35894;DHT22;21994;48.204;16.516;2023-03-01T11:13:51;10.00;90.50
35894;DHT22;21994;48.204;16.516;2023-03-01T11:16:22;10.10;91.20
35894;DHT22;21994;48.204;16.516;2023-03-01T11:19:00;10.60;87.20
35894;DHT22;21994;48.204;16.516;2023-03-01T11:24:23;11.20;85.50
35894;DHT22;21994;48.204;16.516;2023-03-01T11:26:57;10.30;87.50
35894;DHT22;21994;48.204;16.516;2023-03-01T11:29:36;9.80;91.10
35894;DHT22;21994;48.204;16.516;2023-03-01T11:32:08;9.40;90.70
35894;DHT22;21994;48.204;16.516;2023-03-01T11:34:42;9.00;90.70
35894;DHT22;21994;48.204;16.516;2023-03-01T11:40:10;8.80;91.40
35894;DHT22;21994;48.204;16.516;2023-03-01T11:42:42;8.60;91.90
35894;DHT22;21994;48.204;16.516;2023-03-01T11:45:36;8.70;92.80
35894;DHT22;21994;48.204;16.516;2023-03-01T11:50:47;8.80;92.40
35894;DHT22;21994;48.204;16.516;2023-03-01T11:53:23;9.10;91.50
35894;DHT22;21994;48.204;16.516;2023-03-01T11:56:09;9.40;91.90
35894;DHT22;21994;48.204;16.516;2023-03-01T12:01:47;9.70;91.10
35894;DHT22;21994;48.204;16.516;2023-03-01T12:07:25;9.50;92.30
35894;DHT22;21994;48.204;16.516;2023-03-01T12:10:22;9.60;91.20
35894;DHT22;21994;48.204;16.516;2023-03-01T12:15:39;9.80;92.50
35894;DHT22;21994;48.204;16.516;2023-03-01T12:18:25;9.90;90.90
35894;DHT22;21994;48.204;16.516;2023-03-01T12:21:09;9.50;91.00
35894;DHT22;21994;48.204;16.516;2023-03-01T12:24:03;9.40;92.10
35894;DHT22;21994;48.204;16.516;2023-03-01T12:27:18;9.40;92.60
35894;DHT22;21994;48.204;16.516;2023-03-01T12:30:39;9.70;93.30
35894;DHT22;21994;48.204;16.516;2023-03-01T12:44:11;10.10;91.30
35894;DHT22;21994;48.204;16.516;2023-03-01T12:49:13;10.20;91.10
35894;DHT22;21994;48.204;16.516;2023-03-01T12:51:40;10.30;91.30
35894;DHT22;21994;48.204;16.516;2023-03-01T12:54:35;10.30;92.10
35894;DHT22;21994;48.204;16.516;2023-03-01T12:57:20;10.40;91.50
35894;DHT22;21994;48.204;16.516;2023-03-01T13:00:00;10.50;92.10
35894;DHT22;21994;48.204;16.516;2023-03-01T13:02:52;10.60;92.10
35894;DHT22;21994;48.204;16.516;2023-03-01T13:13:18;10.60;91.70
35894;DHT22;21994;48.204;16.516;2023-03-01T13:15:49;10.80;92.80
35894;DHT22;21994;48.204;16.516;2023-03-01T13:20:48;10.50;92.30
35894;DHT22;21994;48.204;16.516;2023-03-01T13:30:59;10.40;92.30
35894;DHT22;21994;48.204;16.516;2023-03-01T13:35:52;10.30;92.60
35894;DHT22;21994;48.204;16.516;2023-03-01T13:41:03;10.50;92.90
35894;DHT22;21994;48.204;16.516;2023-03-01T13:43:31;10.60;92.90
35894;DHT22;21994;48.204;16.516;2023-03-01T13:45:58;10.50;92.70
35894;DHT22;21994;48.204;16.516;2023-03-01T13:48:25;10.50;92.20
35894;DHT22;21994;48.204;16.516;2023-03-01T13:50:58;10.50;92.80
35894;DHT22;21994;48.204;16.516;2023-03-01T13:53:26;10.60;92.30
35894;DHT22;21994;48.204;16.516;2023-03-01T13:56:14;10.60;92.10
35894;DHT22;21994;48.204;16.516;2023-03-01T13:58:49;10.40;92.60
35894;DHT22;21994;48.204;16.516;2023-03-01T14:01:23;10.30;92.40
35894;DHT22;21994;48.204;16.516;2023-03-01T14:03:53;10.10;92.70
35894;DHT22;21994;48.204;16.516;2023-03-01T14:06:26;10.00;92.60
35894;DHT22;21994;48.204;16.516;2023-03-01T14:09:03;10.00;92.90
35894;DHT22;21994;48.204;16.516;2023-03-01T14:19:57;10.20;93.20
35894;DHT22;21994;48.204;16.516;2023-03-01T14:22:25;10.50;92.80
35894;DHT22;21994;48.204;16.516;2023-03-01T14:27:19;11.10;92.10
35894;DHT22;21994;48.204;16.516;2023-03-01T14:29:53;11.20;91.20
35894;DHT22;21994;48.204;16.516;2023-03-01T14:32:22;11.00;91.60
35894;DHT22;21994;48.204;16.516;2023-03-01T14:34:50;11.00;91.20
35894;DHT22;21994;48.204;16.516;2023-03-01T14:37:34;11.20;91.20
35894;DHT22;21994;48.204;16.516;2023-03-01T14:40:01;11.30;91.20
35894;DHT22;21994;48.204;16.516;2023-03-01T14:42:34;11.20;91.10
35894;DHT22;21994;48.204;16.516;2023-03-01T14:45:01;11.50;91.70
35894;DHT22;21994;48.204;16.516;2023-03-01T14:47:30;11.80;91.30
35894;DHT22;21994;48.204;16.516;2023-03-01T14:50:07;12.00;91.00
35894;DHT22;21994;48.204;16.516;2023-03-01T14:52:39;12.00;90.20
35894;DHT22;21994;48.204;16.516;2023-03-01T14:57:54;11.90;89.60
35894;DHT22;21994;48.204;16.516;2023-03-01T15:00:31;11.70;90.60
35894;DHT22;21994;48.204;16.516;2023-03-01T15:03:01;11.50;90.80
35894;DHT22;21994;48.204;16.516;2023-03-01T15:05:35;11.30;90.70
35894;DHT22;21994;48.204;16.516;2023-03-01T15:08:01;11.00;90.90
35894;DHT22;21994;48.204;16.516;2023-03-01T15:10:29;10.90;91.10
35894;DHT22;21994;48.204;16.516;2023-03-01T15:13:41;10.70;91.50
35894;DHT22;21994;48.204;16.516;2023-03-01T15:15:49;10.40;91.20
35894;DHT22;21994;48.204;16.516;2023-03-01T15:18:18;10.20;91.70
35894;DHT22;21994;48.204;16.516;2023-03-01T15:20:45;9.90;91.70
35894;DHT22;21994;48.204;16.516;2023-03-01T15:23:28;9.70;91.90
35894;DHT22;21994;48.204;16.516;2023-03-01T15:25:55;9.60;91.90
35894;DHT22;21994;48.204;16.516;2023-03-01T15:28:28;9.50;92.30
35894;DHT22;21994;48.204;16.516;2023-03-01T15:31:12;9.40;92.80
35894;DHT22;21994;48.204;16.516;2023-03-01T15:33:39;9.20;92.90
35894;DHT22;21994;48.204;16.516;2023-03-01T15:36:31;9.20;92.80
35894;DHT22;21994;48.204;16.516;2023-03-01T15:42:07;9.10;92.90
35894;DHT22;21994;48.204;16.516;2023-03-01T15:44:38;9.00;93.10
35894;DHT22;21994;48.204;16.516;2023-03-01T15:47:26;8.90;93.20
35894;DHT22;21994;48.204;16.516;2023-03-01T15:49:56;8.80;93.40
35894;DHT22;21994;48.204;16.516;2023-03-01T15:52:28;8.60;93.50
35894;DHT22;21994;48.204;16.516;2023-03-01T15:55:02;8.60;94.20
35894;DHT22;21994;48.204;16.516;2023-03-01T15:57:29;8.60;94.30
35894;DHT22;21994;48.204;16.516;2023-03-01T15:59:56;8.50;94.00
35894;DHT22;21994;48.204;16.516;2023-03-01T16:02:23;8.40;94.10
35894;DHT22;21994;48.204;16.516;2023-03-01T16:04:49;8.50;94.10
35894;DHT22;21994;48.204;16.516;2023-03-01T16:07:16;8.50;94.20
35894;DHT22;21994;48.204;16.516;2023-03-01T16:09:42;8.50;94.20
35894;DHT22;21994;48.204;16.516;2023-03-01T16:12:15;8.30;94.10
35894;DHT22;21994;48.204;16.516;2023-03-01T16:14:42;8.10;94.30
35894;DHT22;21994;48.204;16.516;2023-03-01T16:17:08;8.00;94.30
35894;DHT22;21994;48.204;16.516;2023-03-01T16:19:36;7.90;94.40
35894;DHT22;21994;48.204;16.516;2023-03-01T16:22:04;7.90;94.50
35894;DHT22;21994;48.204;16.516;2023-03-01T16:24:30;7.90;94.60
35894;DHT22;21994;48.204;16.516;2023-03-01T16:26:56;7.70;94.80
35894;DHT22;21994;48.204;16.516;2023-03-01T16:29:21;7.50;94.90
35894;DHT22;21994;48.204;16.516;2023-03-01T16:31:47;7.50;95.10
35894;DHT22;21994;48.204;16.516;2023-03-01T16:34:13;7.30;95.20
35894;DHT22;21994;48.204;16.516;2023-03-01T16:36:39;7.20;95.50
35894;DHT22;21994;48.204;16.516;2023-03-01T16:39:05;7.00;95.80
35894;DHT22;21994;48.204;16.516;2023-03-01T16:41:31;6.80;96.00
35894;DHT22;21994;48.204;16.516;2023-03-01T16:43:57;6.60;96.00
35894;DHT22;21994;48.204;16.516;2023-03-01T16:46:24;6.60;96.30
35894;DHT22;21994;48.204;16.516;2023-03-01T16:48:53;6.40;96.30
35894;DHT22;21994;48.204;16.516;2023-03-01T16:51:19;6.30;96.70
35894;DHT22;21994;48.204;16.516;2023-03-01T16:53:45;6.30;96.90
35894;DHT22;21994;48.204;16.516;2023-03-01T16:56:11;6.20;97.00
35894;DHT22;21994;48.204;16.516;2023-03-01T16:58:38;6.10;97.30
35894;DHT22;21994;48.204;16.516;2023-03-01T17:01:08;6.10;97.50
35894;DHT22;21994;48.204;16.516;2023-03-01T17:03:36;6.00;97.60
35894;DHT22;21994;48.204;16.516;2023-03-01T17:06:03;6.00;97.70
35894;DHT22;21994;48.204;16.516;2023-03-01T17:08:30;6.00;98.30
35894;DHT22;21994;48.204;16.516;2023-03-01T17:11:01;5.90;98.40
35894;DHT22;21994;48.204;16.516;2023-03-01T17:13:32;5.80;98.50
35894;DHT22;21994;48.204;16.516;2023-03-01T17:15:59;5.70;98.60